Search for airport 
image banner adimage banner adimage banner ad
image banner ad

2PA6 - The Old Commonwealth Aerodrome

Located in Shartlesville, United States

ICAO - 2PA6, IATA -

Data provided by Airmate  

General information

Coordinates: N40°29'28" W76°5'52"
Elevation is 540 feet MSL.
Magnetic variation is -11° East
View others Airports in Pennsylvania

Operational data

Special qualification required
Current time UTC:
Current local time:
METAR: KRDG 091654Z 19007KT 10SM -RA FEW039 BKN049 OVC055 11/04 A3005 RMK AO2 RAB43 SLP180 P0000 T01060039
TAF: KRDG 091120Z 0912/1012 VRB02KT P6SM BKN200 TEMPO 0918/0920 4SM -RA OVC015 FM092000 15005KT P6SM VCSH OVC020 FM100500 VRB02KT P6SM OVC040 WS020/23040KT FM100900 31006KT P6SM BKN035
View NOTAMs / SUP AIP / TFR affecting this airport [VIEW]
Communications frequencies: [VIEW]

Runways:

RWY identifierQFULength (ft)Width (ft)SurfaceLDA (ft)
181050100GRASS
361050100GRASS

Airport contact information

Address: Shartlesville United States

Satellite view of 2PA6